PUA2603 SEGU-SEQM
Flight info
| Callsign | PUA2603 |
|---|---|
| Flight time | N/A |
| Altitude | 22000 |
| Route | REGAP2 PAMIS G675 QIT |
| Aircraft | A339/H-SADE1E2E3GHIJ3J5M1P2RWXY/LB2D1 |
Departure
| Time | 2026-04-14 04:22 |
|---|---|
| Airport | José Joaquín de Olmedo International Airport (SEGU) |
Arrival
| Time | N/A |
|---|---|
| Airport | Mariscal Sucre International Airport (SEQM) |
| Time | Latitude | Longitude | Altitude | Speed | Heading |
|---|---|---|---|---|---|
| 2026-04-14 03:53 | -2.15696 | -79.88530 | 41 ft | 0 kts | 298° |
| 2026-04-14 04:09 | -2.15702 | -79.88521 | 41 ft | 2 kts | 308° |
| 2026-04-14 04:10 | -2.15704 | -79.88518 | 41 ft | 1 kts | 313° |
| 2026-04-14 04:10 | -2.15712 | -79.88511 | 42 ft | 2 kts | 322° |
| 2026-04-14 04:10 | -2.15724 | -79.88503 | 42 ft | 2 kts | 334° |
| 2026-04-14 04:11 | -2.15738 | -79.88498 | 42 ft | 2 kts | 347° |
| 2026-04-14 04:11 | -2.15752 | -79.88496 | 42 ft | 2 kts | 360° |
| 2026-04-14 04:11 | -2.15766 | -79.88497 | 42 ft | 2 kts | 12° |
| 2026-04-14 04:11 | -2.15781 | -79.88501 | 41 ft | 2 kts | 25° |
| 2026-04-14 04:12 | -2.15792 | -79.88508 | 41 ft | 2 kts | 31° |
| 2026-04-14 04:12 | -2.15805 | -79.88515 | 41 ft | 2 kts | 30° |
| 2026-04-14 04:12 | -2.15817 | -79.88522 | 41 ft | 2 kts | 29° |
| 2026-04-14 04:12 | -2.15830 | -79.88529 | 41 ft | 2 kts | 29° |
| 2026-04-14 04:13 | -2.15838 | -79.88534 | 42 ft | 0 kts | 29° |
| 2026-04-14 04:14 | -2.15827 | -79.88528 | 41 ft | 3 kts | 29° |
| 2026-04-14 04:14 | -2.15798 | -79.88512 | 41 ft | 6 kts | 29° |
| 2026-04-14 04:15 | -2.15755 | -79.88488 | 41 ft | 8 kts | 30° |
| 2026-04-14 04:15 | -2.15704 | -79.88458 | 40 ft | 6 kts | 30° |
| 2026-04-14 04:15 | -2.15700 | -79.88456 | 40 ft | 0 kts | 30° |
| 2026-04-14 04:16 | -2.15687 | -79.88448 | 40 ft | 5 kts | 30° |
| 2026-04-14 04:16 | -2.15641 | -79.88421 | 39 ft | 11 kts | 31° |
| 2026-04-14 04:16 | -2.15564 | -79.88374 | 39 ft | 16 kts | 30° |
| 2026-04-14 04:16 | -2.15460 | -79.88313 | 37 ft | 21 kts | 31° |
| 2026-04-14 04:17 | -2.15339 | -79.88243 | 36 ft | 19 kts | 30° |
| 2026-04-14 04:17 | -2.15239 | -79.88249 | 36 ft | 13 kts | 346° |
| 2026-04-14 04:17 | -2.15176 | -79.88227 | 36 ft | 9 kts | 37° |
| 2026-04-14 04:17 | -2.15107 | -79.88193 | 35 ft | 16 kts | 32° |
| 2026-04-14 04:18 | -2.14972 | -79.88113 | 35 ft | 27 kts | 28° |
| 2026-04-14 04:18 | -2.14827 | -79.88033 | 35 ft | 24 kts | 31° |
| 2026-04-14 04:18 | -2.14717 | -79.87968 | 37 ft | 19 kts | 31° |
| 2026-04-14 04:18 | -2.14663 | -79.87907 | 36 ft | 11 kts | 64° |
| 2026-04-14 04:19 | -2.14637 | -79.87833 | 35 ft | 12 kts | 84° |
| 2026-04-14 04:19 | -2.14667 | -79.87773 | 35 ft | 11 kts | 162° |
| 2026-04-14 04:19 | -2.14722 | -79.87780 | 35 ft | 4 kts | 210° |
| 2026-04-14 04:19 | -2.14724 | -79.87781 | 35 ft | 0 kts | 207° |
| 2026-04-14 04:21 | -2.14726 | -79.87781 | 35 ft | 2 kts | 207° |
| 2026-04-14 04:21 | -2.14897 | -79.87878 | 35 ft | 63 kts | 211° |
| 2026-04-14 04:22 | -2.15386 | -79.88160 | 35 ft | 119 kts | 211° |
| 2026-04-14 04:22 | -2.17263 | -79.89248 | 712 ft | 164 kts | 210° |
| 2026-04-14 04:22 | -2.18170 | -79.89770 | 1388 ft | 159 kts | 209° |
| 2026-04-14 04:23 | -2.19055 | -79.90218 | 1896 ft | 162 kts | 189° |
| 2026-04-14 04:23 | -2.20110 | -79.90046 | 2168 ft | 165 kts | 142° |
| 2026-04-14 04:23 | -2.20773 | -79.89281 | 2481 ft | 178 kts | 110° |
| 2026-04-14 04:23 | -2.20876 | -79.88048 | 2864 ft | 192 kts | 71° |
| 2026-04-14 04:24 | -2.19819 | -79.86682 | 3381 ft | 212 kts | 41° |
| 2026-04-14 04:24 | -2.18665 | -79.85652 | 3836 ft | 230 kts | 41° |
| 2026-04-14 04:24 | -2.16242 | -79.83423 | 4732 ft | 263 kts | 42° |
| 2026-04-14 04:25 | -2.14864 | -79.82127 | 5466 ft | 269 kts | 43° |
| 2026-04-14 04:25 | -2.10528 | -79.78014 | 7870 ft | 278 kts | 43° |
| 2026-04-14 04:26 | -2.09727 | -79.77254 | 8286 ft | 279 kts | 43° |
| 2026-04-14 04:26 | -2.08316 | -79.75914 | 8984 ft | 283 kts | 43° |
| 2026-04-14 04:26 | -2.06906 | -79.74574 | 9655 ft | 286 kts | 43° |
| 2026-04-14 04:26 | -2.05477 | -79.73260 | 10304 ft | 289 kts | 40° |
| 2026-04-14 04:27 | -2.03852 | -79.72007 | 10687 ft | 305 kts | 34° |
| 2026-04-14 04:27 | -2.02025 | -79.70870 | 10976 ft | 322 kts | 30° |
| 2026-04-14 04:27 | -2.00083 | -79.69765 | 11257 ft | 339 kts | 29° |
| 2026-04-14 04:27 | -1.97994 | -79.68591 | 11650 ft | 351 kts | 29° |
| 2026-04-14 04:28 | -1.95887 | -79.67405 | 12314 ft | 355 kts | 29° |
| 2026-04-14 04:28 | -1.93736 | -79.66190 | 12948 ft | 359 kts | 30° |
| 2026-04-14 04:28 | -1.91571 | -79.64967 | 13571 ft | 363 kts | 30° |
| 2026-04-14 04:28 | -1.89407 | -79.63741 | 14158 ft | 367 kts | 30° |
| 2026-04-14 04:29 | -1.87192 | -79.62485 | 14745 ft | 371 kts | 30° |
| 2026-04-14 04:29 | -1.84957 | -79.61219 | 15368 ft | 374 kts | 30° |
| 2026-04-14 04:29 | -1.82700 | -79.59936 | 15972 ft | 378 kts | 31° |
| 2026-04-14 04:29 | -1.80453 | -79.58659 | 16535 ft | 382 kts | 30° |
| 2026-04-14 04:30 | -1.78123 | -79.57335 | 17054 ft | 386 kts | 30° |
| 2026-04-14 04:30 | -1.75752 | -79.55989 | 17615 ft | 389 kts | 31° |
| 2026-04-14 04:30 | -1.73459 | -79.54683 | 18190 ft | 392 kts | 31° |
| 2026-04-14 04:30 | -1.71134 | -79.53361 | 18767 ft | 395 kts | 31° |
| 2026-04-14 04:31 | -1.68815 | -79.52040 | 19325 ft | 398 kts | 31° |
| 2026-04-14 04:31 | -1.66471 | -79.50706 | 19816 ft | 401 kts | 31° |
| 2026-04-14 04:31 | -1.61729 | -79.48016 | 20839 ft | 406 kts | 31° |
| 2026-04-14 04:32 | -1.59310 | -79.46641 | 21343 ft | 408 kts | 31° |
| 2026-04-14 04:32 | -1.56879 | -79.45245 | 21799 ft | 411 kts | 32° |
| 2026-04-14 04:32 | -1.54458 | -79.43841 | 22035 ft | 411 kts | 32° |
| 2026-04-14 04:32 | -1.52043 | -79.42438 | 22083 ft | 411 kts | 32° |
| 2026-04-14 04:33 | -1.49616 | -79.41028 | 22091 ft | 411 kts | 32° |
| 2026-04-14 04:33 | -1.47127 | -79.39580 | 22104 ft | 411 kts | 32° |
| 2026-04-14 04:33 | -1.44676 | -79.38156 | 22104 ft | 411 kts | 32° |
| 2026-04-14 04:33 | -1.42217 | -79.36729 | 22098 ft | 410 kts | 32° |
| 2026-04-14 04:34 | -1.39773 | -79.35309 | 22122 ft | 411 kts | 32° |
| 2026-04-14 04:34 | -1.37324 | -79.33886 | 22125 ft | 411 kts | 32° |
| 2026-04-14 04:34 | -1.34913 | -79.32487 | 22118 ft | 410 kts | 32° |
| 2026-04-14 04:34 | -1.32537 | -79.31107 | 22122 ft | 410 kts | 32° |
| 2026-04-14 04:35 | -1.30166 | -79.29730 | 22120 ft | 409 kts | 32° |
| 2026-04-14 04:35 | -1.27746 | -79.28322 | 22125 ft | 410 kts | 32° |
| 2026-04-14 04:35 | -1.25346 | -79.26929 | 22132 ft | 410 kts | 32° |
| 2026-04-14 04:35 | -1.22950 | -79.25537 | 22142 ft | 410 kts | 32° |
| 2026-04-14 04:36 | -1.20553 | -79.24148 | 22158 ft | 409 kts | 32° |
| 2026-04-14 04:36 | -1.18171 | -79.22765 | 22177 ft | 408 kts | 32° |
| 2026-04-14 04:36 | -1.15727 | -79.21347 | 22196 ft | 408 kts | 32° |
| 2026-04-14 04:36 | -1.13299 | -79.19936 | 22228 ft | 409 kts | 32° |
| 2026-04-14 04:37 | -1.10853 | -79.18515 | 22256 ft | 409 kts | 32° |
| 2026-04-14 04:37 | -1.08461 | -79.17127 | 22278 ft | 409 kts | 32° |
| 2026-04-14 04:37 | -1.06016 | -79.15707 | 22304 ft | 409 kts | 32° |
| 2026-04-14 04:37 | -1.03575 | -79.14290 | 22339 ft | 409 kts | 32° |
| 2026-04-14 04:38 | -1.01156 | -79.12885 | 22361 ft | 409 kts | 32° |
| 2026-04-14 04:38 | -0.98756 | -79.11491 | 22375 ft | 409 kts | 32° |
| 2026-04-14 04:38 | -0.96382 | -79.10113 | 22386 ft | 409 kts | 32° |
| 2026-04-14 04:38 | -0.93989 | -79.08722 | 22391 ft | 408 kts | 32° |
| 2026-04-14 04:39 | -0.91558 | -79.07309 | 22405 ft | 409 kts | 32° |
| 2026-04-14 04:39 | -0.89168 | -79.05920 | 22418 ft | 409 kts | 32° |
| 2026-04-14 04:39 | -0.86733 | -79.04506 | 22420 ft | 409 kts | 32° |
| 2026-04-14 04:39 | -0.84313 | -79.03101 | 22423 ft | 409 kts | 32° |
| 2026-04-14 04:40 | -0.81900 | -79.01701 | 22425 ft | 409 kts | 32° |
| 2026-04-14 04:40 | -0.79528 | -79.00264 | 22437 ft | 409 kts | 34° |
| 2026-04-14 04:40 | -0.77216 | -78.98778 | 22442 ft | 409 kts | 34° |
| 2026-04-14 04:41 | -0.72546 | -78.95747 | 22447 ft | 409 kts | 34° |
| 2026-04-14 04:41 | -0.70255 | -78.94260 | 22442 ft | 410 kts | 34° |
| 2026-04-14 04:41 | -0.67938 | -78.92757 | 22435 ft | 410 kts | 34° |
| 2026-04-14 04:41 | -0.65643 | -78.91266 | 22438 ft | 410 kts | 34° |
| 2026-04-14 04:42 | -0.63439 | -78.89833 | 22438 ft | 410 kts | 34° |
| 2026-04-14 04:42 | -0.58784 | -78.86812 | 22426 ft | 410 kts | 34° |